sensor_id;sensor_type;location;lat;lon;timestamp;pressure;altitude;pressure_sealevel;temperature;humidity
55373;BME280;41249;47.838;16.490;2022-08-11T00:01:20;99735.38;;;14.60;72.11
55373;BME280;41249;47.838;16.490;2022-08-11T00:03:57;99744.22;;;14.45;73.23
55373;BME280;41249;47.838;16.490;2022-08-11T00:06:34;99735.84;;;14.48;73.54
55373;BME280;41249;47.838;16.490;2022-08-11T00:09:15;99739.59;;;14.54;73.36
55373;BME280;41249;47.838;16.490;2022-08-11T00:11:51;99739.78;;;14.52;73.36
55373;BME280;41249;47.838;16.490;2022-08-11T00:14:20;99741.84;;;14.50;73.87
55373;BME280;41249;47.838;16.490;2022-08-11T00:16:55;99728.56;;;14.57;73.03
55373;BME280;41249;47.838;16.490;2022-08-11T00:19:27;99740.41;;;14.54;73.42
55373;BME280;41249;47.838;16.490;2022-08-11T00:22:22;99739.44;;;14.55;73.39
55373;BME280;41249;47.838;16.490;2022-08-11T00:24:49;99743.09;;;14.54;73.14
55373;BME280;41249;47.838;16.490;2022-08-11T00:27:30;99737.31;;;14.51;73.08
55373;BME280;41249;47.838;16.490;2022-08-11T00:29:57;99735.16;;;14.61;72.71
55373;BME280;41249;47.838;16.490;2022-08-11T00:32:25;99724.66;;;14.60;72.87
55373;BME280;41249;47.838;16.490;2022-08-11T00:34:53;99737.31;;;14.51;73.42
55373;BME280;41249;47.838;16.490;2022-08-11T00:37:47;99729.84;;;14.46;74.18
55373;BME280;41249;47.838;16.490;2022-08-11T00:40:27;99736.47;;;14.50;74.07
55373;BME280;41249;47.838;16.490;2022-08-11T00:43:19;99728.56;;;14.42;74.75
55373;BME280;41249;47.838;16.490;2022-08-11T00:48:53;99736.25;;;14.31;75.68
55373;BME280;41249;47.838;16.490;2022-08-11T00:52:07;99721.06;;;14.52;74.61
55373;BME280;41249;47.838;16.490;2022-08-11T00:57:33;99730.34;;;14.35;75.93
55373;BME280;41249;47.838;16.490;2022-08-11T01:00:18;99739.94;;;14.29;76.73
55373;BME280;41249;47.838;16.490;2022-08-11T01:08:28;99734.97;;;14.26;77.53
55373;BME280;41249;47.838;16.490;2022-08-11T01:14:24;99724.97;;;14.50;75.76
55373;BME280;41249;47.838;16.490;2022-08-11T01:17:05;99731.22;;;14.21;77.21
55373;BME280;41249;47.838;16.490;2022-08-11T01:59:14;99710.88;;;14.05;81.49
55373;BME280;41249;47.838;16.490;2022-08-11T02:04:46;99704.31;;;14.08;80.97
55373;BME280;41249;47.838;16.490;2022-08-11T02:07:35;99712.50;;;14.21;78.63
55373;BME280;41249;47.838;16.490;2022-08-11T02:10:26;99705.31;;;14.21;78.53
55373;BME280;41249;47.838;16.490;2022-08-11T02:22:26;99709.78;;;13.99;81.63
55373;BME280;41249;47.838;16.490;2022-08-11T02:28:12;99704.53;;;13.91;83.39
55373;BME280;41249;47.838;16.490;2022-08-11T02:31:06;99702.22;;;13.88;83.71
55373;BME280;41249;47.838;16.490;2022-08-11T02:34:44;99702.41;;;13.87;84.66
55373;BME280;41249;47.838;16.490;2022-08-11T02:40:02;99697.25;;;13.85;85.54
55373;BME280;41249;47.838;16.490;2022-08-11T02:59:54;99693.19;;;13.60;88.04
55373;BME280;41249;47.838;16.490;2022-08-11T03:05:20;99697.16;;;13.34;91.65
55373;BME280;41249;47.838;16.490;2022-08-11T03:11:04;99704.56;;;13.09;96.10
55373;BME280;41249;47.838;16.490;2022-08-11T03:17:12;99703.22;;;12.90;99.51
55373;BME280;41249;47.838;16.490;2022-08-11T03:22:36;99715.97;;;12.80;100.00
55373;BME280;41249;47.838;16.490;2022-08-11T03:27:59;99713.59;;;12.85;100.00
55373;BME280;41249;47.838;16.490;2022-08-11T03:30:41;99718.22;;;12.91;100.00
55373;BME280;41249;47.838;16.490;2022-08-11T03:36:13;99714.28;;;12.56;100.00
55373;BME280;41249;47.838;16.490;2022-08-11T03:38:50;99720.19;;;12.75;100.00
55373;BME280;41249;47.838;16.490;2022-08-11T03:41:31;99716.28;;;12.85;100.00
55373;BME280;41249;47.838;16.490;2022-08-11T03:52:50;99720.91;;;12.37;100.00
55373;BME280;41249;47.838;16.490;2022-08-11T03:55:40;99722.88;;;12.67;100.00
55373;BME280;41249;47.838;16.490;2022-08-11T04:09:34;99717.13;;;12.55;100.00
55373;BME280;41249;47.838;16.490;2022-08-11T04:15:22;99722.50;;;12.78;100.00
55373;BME280;41249;47.838;16.490;2022-08-11T04:34:40;99730.06;;;13.12;100.00
55373;BME280;41249;47.838;16.490;2022-08-11T04:49:05;99731.63;;;13.88;93.73
55373;BME280;41249;47.838;16.490;2022-08-11T05:04:58;99725.72;;;14.44;93.40
55373;BME280;41249;47.838;16.490;2022-08-11T05:11:06;99719.66;;;14.93;86.74
55373;BME280;41249;47.838;16.490;2022-08-11T05:16:47;99721.16;;;15.02;81.19
55373;BME280;41249;47.838;16.490;2022-08-11T05:19:35;99724.59;;;15.45;79.52
55373;BME280;41249;47.838;16.490;2022-08-11T05:22:28;99728.19;;;15.59;80.60
55373;BME280;41249;47.838;16.490;2022-08-11T05:25:20;99723.13;;;15.43;76.21
55373;BME280;41249;47.838;16.490;2022-08-11T05:28:37;99733.66;;;15.44;74.10
55373;BME280;41249;47.838;16.490;2022-08-11T05:31:32;99730.09;;;15.65;74.07
55373;BME280;41249;47.838;16.490;2022-08-11T05:34:24;99729.41;;;15.91;72.72
55373;BME280;41249;47.838;16.490;2022-08-11T05:37:13;99732.41;;;16.16;70.14
55373;BME280;41249;47.838;16.490;2022-08-11T05:39:57;99727.00;;;16.64;68.86
55373;BME280;41249;47.838;16.490;2022-08-11T05:42:49;99723.94;;;16.73;68.67
55373;BME280;41249;47.838;16.490;2022-08-11T05:45:35;99726.44;;;16.95;70.43
55373;BME280;41249;47.838;16.490;2022-08-11T05:48:35;99734.66;;;17.00;66.95
55373;BME280;41249;47.838;16.490;2022-08-11T05:51:21;99720.66;;;17.24;66.40
55373;BME280;41249;47.838;16.490;2022-08-11T05:54:22;99726.03;;;17.31;66.98
55373;BME280;41249;47.838;16.490;2022-08-11T05:57:20;99725.41;;;17.36;65.79
55373;BME280;41249;47.838;16.490;2022-08-11T06:00:08;99718.97;;;17.50;64.47
55373;BME280;41249;47.838;16.490;2022-08-11T06:02:46;99720.66;;;17.31;65.08
55373;BME280;41249;47.838;16.490;2022-08-11T06:05:15;99728.09;;;17.36;62.61
55373;BME280;41249;47.838;16.490;2022-08-11T06:07:45;99722.88;;;17.61;62.53
55373;BME280;41249;47.838;16.490;2022-08-11T06:10:30;99729.66;;;17.90;63.49
55373;BME280;41249;47.838;16.490;2022-08-11T06:12:59;99727.94;;;18.02;61.43
55373;BME280;41249;47.838;16.490;2022-08-11T06:15:30;99732.22;;;18.23;60.51
55373;BME280;41249;47.838;16.490;2022-08-11T06:17:58;99733.16;;;18.42;59.74
55373;BME280;41249;47.838;16.490;2022-08-11T06:20:27;99727.84;;;18.28;58.94
55373;BME280;41249;47.838;16.490;2022-08-11T06:23:02;99726.50;;;18.44;57.87
55373;BME280;41249;47.838;16.490;2022-08-11T06:25:33;99725.44;;;18.52;56.92
55373;BME280;41249;47.838;16.490;2022-08-11T06:28:03;99728.41;;;18.75;58.04
55373;BME280;41249;47.838;16.490;2022-08-11T06:30:33;99728.25;;;18.70;56.98
55373;BME280;41249;47.838;16.490;2022-08-11T06:33:05;99722.06;;;18.94;57.63
55373;BME280;41249;47.838;16.490;2022-08-11T06:38:37;99723.16;;;18.87;55.89
55373;BME280;41249;47.838;16.490;2022-08-11T06:41:03;99727.72;;;18.86;56.51
55373;BME280;41249;47.838;16.490;2022-08-11T06:43:56;99727.66;;;19.18;55.71
55373;BME280;41249;47.838;16.490;2022-08-11T06:46:39;99724.44;;;18.84;54.23
55373;BME280;41249;47.838;16.490;2022-08-11T06:49:08;99730.66;;;19.10;53.33
55373;BME280;41249;47.838;16.490;2022-08-11T06:51:55;99727.84;;;19.23;53.61
55373;BME280;41249;47.838;16.490;2022-08-11T06:54:29;99723.09;;;19.18;53.29
55373;BME280;41249;47.838;16.490;2022-08-11T06:56:59;99721.88;;;19.21;52.41
55373;BME280;41249;47.838;16.490;2022-08-11T06:59:55;99719.69;;;19.36;52.84
55373;BME280;41249;47.838;16.490;2022-08-11T07:03:06;99714.44;;;19.41;52.18
55373;BME280;41249;47.838;16.490;2022-08-11T07:08:33;99712.09;;;19.70;51.36
55373;BME280;41249;47.838;16.490;2022-08-11T07:14:33;99709.00;;;19.66;49.89
55373;BME280;41249;47.838;16.490;2022-08-11T07:17:27;99709.22;;;19.83;48.82
55373;BME280;41249;47.838;16.490;2022-08-11T07:19:58;99714.28;;;19.36;51.02
55373;BME280;41249;47.838;16.490;2022-08-11T07:22:53;99705.91;;;19.19;51.72
55373;BME280;41249;47.838;16.490;2022-08-11T07:25:41;99711.13;;;19.39;50.70
55373;BME280;41249;47.838;16.490;2022-08-11T07:28:29;99711.25;;;19.88;49.95
55373;BME280;41249;47.838;16.490;2022-08-11T07:31:23;99709.13;;;19.90;48.94
55373;BME280;41249;47.838;16.490;2022-08-11T07:34:01;99703.59;;;20.03;48.39
55373;BME280;41249;47.838;16.490;2022-08-11T07:36:43;99705.78;;;20.13;48.45
55373;BME280;41249;47.838;16.490;2022-08-11T07:39:21;99702.25;;;20.12;47.81
55373;BME280;41249;47.838;16.490;2022-08-11T07:41:51;99706.38;;;20.15;47.29
55373;BME280;41249;47.838;16.490;2022-08-11T07:44:19;99704.28;;;20.17;46.88
55373;BME280;41249;47.838;16.490;2022-08-11T07:46:48;99700.28;;;20.49;47.29
55373;BME280;41249;47.838;16.490;2022-08-11T07:49:36;99703.59;;;20.51;47.00
55373;BME280;41249;47.838;16.490;2022-08-11T07:52:24;99694.88;;;20.49;46.83
55373;BME280;41249;47.838;16.490;2022-08-11T07:55:02;99693.25;;;20.90;46.46
55373;BME280;41249;47.838;16.490;2022-08-11T07:57:31;99698.00;;;20.65;46.09
55373;BME280;41249;47.838;16.490;2022-08-11T08:00:46;99692.34;;;21.20;45.83
55373;BME280;41249;47.838;16.490;2022-08-11T08:03:38;99690.59;;;21.25;45.03
55373;BME280;41249;47.838;16.490;2022-08-11T08:06:25;99681.28;;;21.21;44.40
55373;BME280;41249;47.838;16.490;2022-08-11T08:09:13;99685.41;;;21.35;43.73
55373;BME280;41249;47.838;16.490;2022-08-11T08:12:00;99687.16;;;21.65;43.11
55373;BME280;41249;47.838;16.490;2022-08-11T08:14:47;99675.19;;;21.49;43.92
55373;BME280;41249;47.838;16.490;2022-08-11T08:17:33;99681.97;;;21.75;42.85
55373;BME280;41249;47.838;16.490;2022-08-11T08:20:47;99686.00;;;22.13;42.63
55373;BME280;41249;47.838;16.490;2022-08-11T08:23:20;99676.38;;;22.05;42.24
55373;BME280;41249;47.838;16.490;2022-08-11T08:26:06;99671.63;;;21.72;43.64
55373;BME280;41249;47.838;16.490;2022-08-11T08:28:59;99676.00;;;22.13;41.93
55373;BME280;41249;47.838;16.490;2022-08-11T08:31:47;99679.72;;;21.72;41.77
55373;BME280;41249;47.838;16.490;2022-08-11T08:34:15;99666.06;;;21.79;41.88
55373;BME280;41249;47.838;16.490;2022-08-11T08:36:47;99668.56;;;22.20;42.12
55373;BME280;41249;47.838;16.490;2022-08-11T08:39:18;99656.44;;;22.85;40.82
55373;BME280;41249;47.838;16.490;2022-08-11T08:41:55;99660.13;;;22.79;39.70
55373;BME280;41249;47.838;16.490;2022-08-11T08:44:24;99661.34;;;22.88;40.08
55373;BME280;41249;47.838;16.490;2022-08-11T08:47:14;99664.25;;;22.36;39.90
55373;BME280;41249;47.838;16.490;2022-08-11T08:50:13;99663.13;;;22.49;40.19
55373;BME280;41249;47.838;16.490;2022-08-11T08:52:52;99658.44;;;22.90;40.39
55373;BME280;41249;47.838;16.490;2022-08-11T08:55:20;99655.50;;;23.30;40.17
55373;BME280;41249;47.838;16.490;2022-08-11T08:57:49;99648.41;;;23.46;38.97
55373;BME280;41249;47.838;16.490;2022-08-11T09:00:18;99650.06;;;23.47;38.42
55373;BME280;41249;47.838;16.490;2022-08-11T09:02:49;99650.13;;;23.96;37.96
55373;BME280;41249;47.838;16.490;2022-08-11T09:05:17;99648.31;;;24.28;38.66
55373;BME280;41249;47.838;16.490;2022-08-11T09:07:46;99644.72;;;23.96;37.82
55373;BME280;41249;47.838;16.490;2022-08-11T09:10:17;99643.19;;;24.05;37.74
55373;BME280;41249;47.838;16.490;2022-08-11T09:12:46;99648.25;;;24.23;38.23
55373;BME280;41249;47.838;16.490;2022-08-11T09:15:14;99637.97;;;24.52;36.75
55373;BME280;41249;47.838;16.490;2022-08-11T09:17:52;99636.72;;;24.65;35.95
55373;BME280;41249;47.838;16.490;2022-08-11T09:20:22;99640.31;;;24.44;36.20
55373;BME280;41249;47.838;16.490;2022-08-11T09:22:55;99632.97;;;24.12;35.49
55373;BME280;41249;47.838;16.490;2022-08-11T09:26:01;99633.38;;;23.82;36.90
55373;BME280;41249;47.838;16.490;2022-08-11T09:28:56;99628.56;;;23.62;35.05
55373;BME280;41249;47.838;16.490;2022-08-11T09:31:24;99634.03;;;23.67;34.75
55373;BME280;41249;47.838;16.490;2022-08-11T09:33:53;99622.84;;;22.86;36.51
55373;BME280;41249;47.838;16.490;2022-08-11T09:36:21;99630.31;;;22.62;36.30
55373;BME280;41249;47.838;16.490;2022-08-11T09:39:06;99618.69;;;23.34;36.38
55373;BME280;41249;47.838;16.490;2022-08-11T09:41:59;99619.59;;;23.40;36.63
55373;BME280;41249;47.838;16.490;2022-08-11T09:44:31;99624.53;;;23.09;36.52
55373;BME280;41249;47.838;16.490;2022-08-11T09:47:18;99618.41;;;22.80;37.06
55373;BME280;41249;47.838;16.490;2022-08-11T09:49:47;99616.50;;;23.14;35.90
55373;BME280;41249;47.838;16.490;2022-08-11T09:52:14;99608.06;;;22.94;35.71
55373;BME280;41249;47.838;16.490;2022-08-11T09:54:46;99614.72;;;23.42;35.64
55373;BME280;41249;47.838;16.490;2022-08-11T09:57:18;99615.19;;;23.00;36.20
55373;BME280;41249;47.838;16.490;2022-08-11T10:00:07;99602.38;;;23.12;35.89
55373;BME280;41249;47.838;16.490;2022-08-11T10:02:46;99597.03;;;24.05;34.56
55373;BME280;41249;47.838;16.490;2022-08-11T10:05:17;99592.16;;;24.34;34.56
55373;BME280;41249;47.838;16.490;2022-08-11T10:08:04;99594.88;;;25.08;33.92
55373;BME280;41249;47.838;16.490;2022-08-11T10:10:35;99595.44;;;25.58;33.41
55373;BME280;41249;47.838;16.490;2022-08-11T10:13:06;99593.09;;;25.82;33.31
55373;BME280;41249;47.838;16.490;2022-08-11T10:15:57;99590.88;;;24.47;32.94
55373;BME280;41249;47.838;16.490;2022-08-11T10:18:42;99586.94;;;24.00;32.93
55373;BME280;41249;47.838;16.490;2022-08-11T10:21:39;99593.22;;;23.57;33.41
55373;BME280;41249;47.838;16.490;2022-08-11T10:24:08;99594.44;;;23.27;34.64
55373;BME280;41249;47.838;16.490;2022-08-11T10:26:55;99582.78;;;22.71;34.98
55373;BME280;41249;47.838;16.490;2022-08-11T10:29:30;99584.00;;;22.47;35.32
55373;BME280;41249;47.838;16.490;2022-08-11T10:32:22;99593.47;;;21.59;36.96
55373;BME280;41249;47.838;16.490;2022-08-11T10:35:24;99598.25;;;21.69;37.97
55373;BME280;41249;47.838;16.490;2022-08-11T10:37:52;99589.03;;;21.81;37.32
55373;BME280;41249;47.838;16.490;2022-08-11T10:40:36;99581.81;;;22.15;37.05
55373;BME280;41249;47.838;16.490;2022-08-11T10:43:05;99578.63;;;23.02;36.04
55373;BME280;41249;47.838;16.490;2022-08-11T10:45:37;99579.78;;;23.07;35.87
55373;BME280;41249;47.838;16.490;2022-08-11T10:48:25;99576.94;;;23.57;35.17
55373;BME280;41249;47.838;16.490;2022-08-11T10:50:54;99570.88;;;22.72;34.74
55373;BME280;41249;47.838;16.490;2022-08-11T10:53:45;99571.06;;;22.83;34.29
55373;BME280;41249;47.838;16.490;2022-08-11T10:56:38;99567.16;;;22.95;33.26
55373;BME280;41249;47.838;16.490;2022-08-11T10:59:25;99568.81;;;22.46;34.50
55373;BME280;41249;47.838;16.490;2022-08-11T11:01:53;99553.88;;;22.60;35.19
55373;BME280;41249;47.838;16.490;2022-08-11T11:04:32;99559.63;;;22.64;34.95
55373;BME280;41249;47.838;16.490;2022-08-11T11:07:12;99558.56;;;22.48;35.85
55373;BME280;41249;47.838;16.490;2022-08-11T11:09:51;99559.91;;;23.40;34.33
55373;BME280;41249;47.838;16.490;2022-08-11T11:12:24;99554.25;;;23.41;33.28
55373;BME280;41249;47.838;16.490;2022-08-11T11:15:12;99552.81;;;22.28;33.73
55373;BME280;41249;47.838;16.490;2022-08-11T11:18:05;99560.34;;;21.80;36.16
55373;BME280;41249;47.838;16.490;2022-08-11T11:20:39;99565.53;;;21.18;36.30
55373;BME280;41249;47.838;16.490;2022-08-11T11:23:31;99566.00;;;21.27;36.59
55373;BME280;41249;47.838;16.490;2022-08-11T11:29:19;99536.97;;;22.53;32.45
55373;BME280;41249;47.838;16.490;2022-08-11T11:37:50;99517.22;;;24.80;30.96
55373;BME280;41249;47.838;16.490;2022-08-11T11:40:30;99517.72;;;25.19;30.41
55373;BME280;41249;47.838;16.490;2022-08-11T11:42:58;99518.81;;;24.71;30.58
55373;BME280;41249;47.838;16.490;2022-08-11T11:45:26;99525.59;;;24.04;31.03
55373;BME280;41249;47.838;16.490;2022-08-11T11:47:54;99521.53;;;23.09;31.62
55373;BME280;41249;47.838;16.490;2022-08-11T11:50:23;99513.16;;;22.89;32.38
55373;BME280;41249;47.838;16.490;2022-08-11T11:52:58;99509.31;;;22.34;32.06
55373;BME280;41249;47.838;16.490;2022-08-11T11:55:26;99509.66;;;23.15;30.90
55373;BME280;41249;47.838;16.490;2022-08-11T11:57:54;99503.44;;;23.85;30.24
55373;BME280;41249;47.838;16.490;2022-08-11T12:00:45;99500.63;;;24.34;29.61
55373;BME280;41249;47.838;16.490;2022-08-11T12:03:32;99506.50;;;23.01;30.68
55373;BME280;41249;47.838;16.490;2022-08-11T12:06:01;99507.84;;;22.60;32.25
55373;BME280;41249;47.838;16.490;2022-08-11T12:08:29;99493.59;;;22.87;32.10
55373;BME280;41249;47.838;16.490;2022-08-11T12:11:05;99509.38;;;22.56;33.42
55373;BME280;41249;47.838;16.490;2022-08-11T12:13:52;99501.53;;;22.93;33.15
55373;BME280;41249;47.838;16.490;2022-08-11T12:16:21;99502.91;;;23.35;32.53
55373;BME280;41249;47.838;16.490;2022-08-11T12:19:05;99500.00;;;22.81;31.64
55373;BME280;41249;47.838;16.490;2022-08-11T12:21:34;99488.78;;;23.33;31.36
55373;BME280;41249;47.838;16.490;2022-08-11T12:24:03;99483.63;;;24.17;29.44
55373;BME280;41249;47.838;16.490;2022-08-11T12:26:55;99470.97;;;24.28;28.43
55373;BME280;41249;47.838;16.490;2022-08-11T12:30:06;99471.19;;;24.21;29.35
55373;BME280;41249;47.838;16.490;2022-08-11T12:32:35;99467.34;;;25.07;27.42
55373;BME280;41249;47.838;16.490;2022-08-11T12:35:04;99455.09;;;24.99;27.66
55373;BME280;41249;47.838;16.490;2022-08-11T12:37:54;99476.34;;;24.60;28.17
55373;BME280;41249;47.838;16.490;2022-08-11T12:40:37;99460.84;;;24.55;28.28
55373;BME280;41249;47.838;16.490;2022-08-11T12:43:45;99448.00;;;23.81;28.38
55373;BME280;41249;47.838;16.490;2022-08-11T12:46:33;99464.41;;;23.16;28.08
55373;BME280;41249;47.838;16.490;2022-08-11T12:49:09;99455.53;;;22.77;27.92
55373;BME280;41249;47.838;16.490;2022-08-11T12:51:57;99446.09;;;23.50;27.95
55373;BME280;41249;47.838;16.490;2022-08-11T12:57:27;99456.53;;;23.14;28.70
55373;BME280;41249;47.838;16.490;2022-08-11T13:00:14;99443.25;;;22.91;28.52
55373;BME280;41249;47.838;16.490;2022-08-11T13:03:02;99439.72;;;23.66;28.31
55373;BME280;41249;47.838;16.490;2022-08-11T13:05:52;99450.69;;;22.62;29.11
55373;BME280;41249;47.838;16.490;2022-08-11T13:08:22;99441.34;;;22.91;29.25
55373;BME280;41249;47.838;16.490;2022-08-11T13:10:52;99444.41;;;23.22;30.24
55373;BME280;41249;47.838;16.490;2022-08-11T13:13:39;99448.50;;;23.24;29.22
55373;BME280;41249;47.838;16.490;2022-08-11T13:16:30;99444.16;;;23.23;29.19
55373;BME280;41249;47.838;16.490;2022-08-11T13:19:19;99436.91;;;23.83;28.76
55373;BME280;41249;47.838;16.490;2022-08-11T13:21:48;99431.31;;;23.63;28.47
55373;BME280;41249;47.838;16.490;2022-08-11T13:24:15;99423.03;;;23.47;28.79
55373;BME280;41249;47.838;16.490;2022-08-11T13:26:44;99436.84;;;23.24;29.23
55373;BME280;41249;47.838;16.490;2022-08-11T13:29:20;99431.56;;;23.61;29.54
55373;BME280;41249;47.838;16.490;2022-08-11T13:31:49;99419.88;;;23.61;28.45
55373;BME280;41249;47.838;16.490;2022-08-11T13:34:17;99421.28;;;23.63;27.71
55373;BME280;41249;47.838;16.490;2022-08-11T13:36:48;99427.88;;;23.45;28.75
55373;BME280;41249;47.838;16.490;2022-08-11T13:39:16;99420.66;;;23.88;28.73
55373;BME280;41249;47.838;16.490;2022-08-11T13:41:44;99426.06;;;24.15;28.07
55373;BME280;41249;47.838;16.490;2022-08-11T13:44:16;99419.44;;;24.01;27.45
55373;BME280;41249;47.838;16.490;2022-08-11T13:46:50;99425.97;;;24.47;27.72
55373;BME280;41249;47.838;16.490;2022-08-11T13:49:19;99421.88;;;24.97;26.84
55373;BME280;41249;47.838;16.490;2022-08-11T13:51:46;99409.78;;;25.30;26.02
55373;BME280;41249;47.838;16.490;2022-08-11T13:54:23;99415.81;;;24.75;26.26
55373;BME280;41249;47.838;16.490;2022-08-11T13:56:53;99417.09;;;24.57;26.40
55373;BME280;41249;47.838;16.490;2022-08-11T13:59:22;99406.06;;;23.94;26.43
55373;BME280;41249;47.838;16.490;2022-08-11T14:02:06;99401.88;;;24.61;26.82
55373;BME280;41249;47.838;16.490;2022-08-11T14:04:56;99405.88;;;23.42;26.93
55373;BME280;41249;47.838;16.490;2022-08-11T14:07:28;99403.47;;;23.23;26.87
55373;BME280;41249;47.838;16.490;2022-08-11T14:09:58;99413.22;;;23.19;26.55
55373;BME280;41249;47.838;16.490;2022-08-11T14:12:28;99409.19;;;23.49;26.14
55373;BME280;41249;47.838;16.490;2022-08-11T14:15:22;99397.78;;;24.11;24.47
55373;BME280;41249;47.838;16.490;2022-08-11T14:17:54;99393.91;;;24.02;24.00
55373;BME280;41249;47.838;16.490;2022-08-11T14:20:23;99397.31;;;23.87;25.45
55373;BME280;41249;47.838;16.490;2022-08-11T14:23:06;99386.00;;;23.95;24.72
55373;BME280;41249;47.838;16.490;2022-08-11T14:25:33;99391.72;;;24.41;24.78
55373;BME280;41249;47.838;16.490;2022-08-11T14:28:21;99385.59;;;23.81;24.87
55373;BME280;41249;47.838;16.490;2022-08-11T14:31:01;99393.88;;;23.11;25.24
55373;BME280;41249;47.838;16.490;2022-08-11T14:33:31;99391.22;;;23.43;25.44
55373;BME280;41249;47.838;16.490;2022-08-11T14:36:21;99388.91;;;23.29;25.36
55373;BME280;41249;47.838;16.490;2022-08-11T14:38:49;99382.44;;;23.30;25.62
55373;BME280;41249;47.838;16.490;2022-08-11T14:41:16;99390.66;;;22.92;25.40
55373;BME280;41249;47.838;16.490;2022-08-11T14:44:24;99379.88;;;23.78;25.64
55373;BME280;41249;47.838;16.490;2022-08-11T14:47:11;99379.56;;;23.42;26.23
55373;BME280;41249;47.838;16.490;2022-08-11T14:49:54;99389.47;;;23.58;26.63
55373;BME280;41249;47.838;16.490;2022-08-11T14:52:54;99395.84;;;23.42;25.76
55373;BME280;41249;47.838;16.490;2022-08-11T14:55:26;99384.47;;;23.45;26.48
55373;BME280;41249;47.838;16.490;2022-08-11T14:58:20;99385.56;;;23.22;26.55
55373;BME280;41249;47.838;16.490;2022-08-11T15:00:51;99381.00;;;23.50;26.43
55373;BME280;41249;47.838;16.490;2022-08-11T15:03:19;99377.19;;;23.51;26.55
55373;BME280;41249;47.838;16.490;2022-08-11T15:05:53;99370.66;;;23.47;26.53
55373;BME280;41249;47.838;16.490;2022-08-11T15:08:32;99369.00;;;23.46;26.63
55373;BME280;41249;47.838;16.490;2022-08-11T15:11:20;99370.47;;;23.58;26.63
55373;BME280;41249;47.838;16.490;2022-08-11T15:14:08;99374.47;;;22.97;26.94
55373;BME280;41249;47.838;16.490;2022-08-11T15:16:37;99374.22;;;22.98;27.38
55373;BME280;41249;47.838;16.490;2022-08-11T15:19:27;99361.88;;;22.86;26.59
55373;BME280;41249;47.838;16.490;2022-08-11T15:22:02;99371.88;;;23.07;27.04
55373;BME280;41249;47.838;16.490;2022-08-11T15:24:53;99366.97;;;23.04;27.13
55373;BME280;41249;47.838;16.490;2022-08-11T15:27:21;99361.47;;;22.99;27.52
55373;BME280;41249;47.838;16.490;2022-08-11T15:30:09;99363.69;;;22.58;27.55
55373;BME280;41249;47.838;16.490;2022-08-11T15:33:07;99363.66;;;22.75;28.43
55373;BME280;41249;47.838;16.490;2022-08-11T15:35:54;99357.50;;;22.63;28.11
55373;BME280;41249;47.838;16.490;2022-08-11T15:39:02;99353.53;;;22.48;28.83
55373;BME280;41249;47.838;16.490;2022-08-11T15:41:44;99347.59;;;22.68;29.04
55373;BME280;41249;47.838;16.490;2022-08-11T15:44:33;99349.03;;;22.54;29.44
55373;BME280;41249;47.838;16.490;2022-08-11T15:47:37;99349.81;;;22.33;29.61
55373;BME280;41249;47.838;16.490;2022-08-11T15:50:12;99340.16;;;22.20;29.69
55373;BME280;41249;47.838;16.490;2022-08-11T15:52:45;99341.38;;;22.51;30.04
55373;BME280;41249;47.838;16.490;2022-08-11T15:55:15;99331.25;;;22.41;30.07
55373;BME280;41249;47.838;16.490;2022-08-11T15:57:44;99331.81;;;22.43;29.99
55373;BME280;41249;47.838;16.490;2022-08-11T16:00:32;99337.81;;;22.24;30.38
55373;BME280;41249;47.838;16.490;2022-08-11T16:03:40;99338.66;;;22.29;30.68
55373;BME280;41249;47.838;16.490;2022-08-11T16:06:36;99320.59;;;22.13;30.62
55373;BME280;41249;47.838;16.490;2022-08-11T16:09:06;99322.19;;;22.31;30.78
55373;BME280;41249;47.838;16.490;2022-08-11T16:11:45;99318.44;;;22.59;30.68
55373;BME280;41249;47.838;16.490;2022-08-11T16:14:15;99315.94;;;22.52;30.48
55373;BME280;41249;47.838;16.490;2022-08-11T16:17:03;99317.88;;;22.13;30.65
55373;BME280;41249;47.838;16.490;2022-08-11T16:19:32;99320.00;;;21.94;31.67
55373;BME280;41249;47.838;16.490;2022-08-11T16:22:07;99317.72;;;21.86;32.02
55373;BME280;41249;47.838;16.490;2022-08-11T16:24:36;99315.44;;;21.78;32.13
55373;BME280;41249;47.838;16.490;2022-08-11T16:27:24;99317.16;;;21.84;31.88
55373;BME280;41249;47.838;16.490;2022-08-11T16:29:52;99312.00;;;21.82;32.18
55373;BME280;41249;47.838;16.490;2022-08-11T16:32:22;99308.69;;;21.58;32.36
55373;BME280;41249;47.838;16.490;2022-08-11T16:35:06;99307.75;;;21.70;32.81
55373;BME280;41249;47.838;16.490;2022-08-11T16:37:58;99300.63;;;21.63;32.93
55373;BME280;41249;47.838;16.490;2022-08-11T16:40:46;99302.94;;;21.55;33.15
55373;BME280;41249;47.838;16.490;2022-08-11T16:43:16;99302.53;;;21.46;33.72
55373;BME280;41249;47.838;16.490;2022-08-11T16:46:04;99308.75;;;21.47;33.44
55373;BME280;41249;47.838;16.490;2022-08-11T16:48:53;99305.97;;;21.58;33.19
55373;BME280;41249;47.838;16.490;2022-08-11T16:51:21;99307.44;;;21.49;33.60
55373;BME280;41249;47.838;16.490;2022-08-11T16:53:49;99308.25;;;21.66;33.76
55373;BME280;41249;47.838;16.490;2022-08-11T16:56:48;99314.53;;;21.38;33.94
55373;BME280;41249;47.838;16.490;2022-08-11T16:59:26;99314.81;;;21.54;34.05
55373;BME280;41249;47.838;16.490;2022-08-11T17:01:59;99314.84;;;21.25;34.45
55373;BME280;41249;47.838;16.490;2022-08-11T17:04:38;99320.75;;;21.22;34.74
55373;BME280;41249;47.838;16.490;2022-08-11T17:07:28;99319.75;;;21.11;34.87
55373;BME280;41249;47.838;16.490;2022-08-11T17:10:37;99318.78;;;21.18;35.13
55373;BME280;41249;47.838;16.490;2022-08-11T17:13:42;99322.44;;;21.11;35.30
55373;BME280;41249;47.838;16.490;2022-08-11T17:16:11;99320.94;;;20.87;35.79
55373;BME280;41249;47.838;16.490;2022-08-11T17:18:50;99329.66;;;20.77;35.92